King Corn — V7VQ5 — position and weather

sailwx.info

Track history (hours):
 
Tides and Currents Weather Stations Pressure Air Temp Water Temp Dewpoint Dewpoint Depression Visibility Wind Speed Wind Dir Waves Ship Positions

King Corn

Last reported at 2018-May-21 22:14 UTC. Time now 2018-Jun-18 19:35 UTC.
Position S 27°03' E 153°46'.
Warning: this ship's position is 27 days out of date.

Length 169 m; draft 8 m.

Type: Cargo ship. MMSI: 538004187.

Date/timePositionNaut miles runAvg speedWind from/ knotsBaromVisibWave heightAir tempDewpointWater temp
2018-May-21 22:14S 27°03' E 153°46'411.7
2018-May-21 21:55S 27°07' E 153°46'511.5
2018-May-21 21:30S 27°11' E 153°47'611.4
2018-May-21 20:58S 27°18' E 153°48'511.6
2018-May-21 20:30S 27°23' E 153°49'611.4
2018-May-21 19:59S 27°29' E 153°50'611.5
2018-May-21 19:30S 27°34' E 153°51'612.0
2018-May-21 18:59S 27°40' E 153°51'612.4
2018-May-21 18:30S 27°46' E 153°52'612.1
2018-May-21 17:59S 27°53' E 153°53'27610.6
2018-May-20 15:56S 32°23' E 152°48'5 9.0
2018-May-20 15:22S 32°28' E 152°45'4 9.3
2018-May-20 14:56S 32°31' E 152°42'4 9.2
2018-May-20 14:30S 32°35' E 152°40'5 9.4
2018-May-20 14:00S 32°38' E 152°37'510.3
2018-May-20 13:30S 32°43' E 152°34'510.4
2018-May-20 13:00S 32°48' E 152°32'510.7
2018-May-20 12:30S 32°53' E 152°29'611.0
2018-May-20 12:00S 32°57' E 152°26'610.9
2018-May-20 11:30S 33°02' E 152°22'510.3
2018-May-20 11:00S 33°07' E 152°20'510.4
2018-May-20 10:30S 33°11' E 152°17'3011.5
2018-May-20 07:54S 33°38' E 151°60'512.1
2018-May-20 07:28S 33°42' E 151°57'712.4
2018-May-20 06:53S 33°49' E 151°53'512.1
2018-May-20 06:30S 33°53' E 151°50'711.7
2018-May-20 05:55S 33°59' E 151°46'511.3
2018-May-20 05:30S 34°03' E 151°43'511.1
2018-May-20 05:00S 34°08' E 151°40'911.2
2018-May-20 04:12S 34°13' E 151°31'  
2018-May-17 18:52S 34°19' E 151°07'  
2018-May-15 05:47S 38°25' E 148°60'192 8.8
2018-May-14 07:54S 38°13' E 144°55'614.1
2018-May-14 07:28S 38°06' E 144°55'714.1
2018-May-14 07:00S 37°60' E 144°55'712.9
2018-May-14 06:26S 37°53' E 144°55'3 7.2
2018-May-14 05:59S 37°49' E 144°54'0 0.0
2018-May-13 05:19S 37°49' E 144°54'0 0.0
2018-May-13 04:19S 37°49' E 144°54'0 0.0
2018-May-13 03:55S 37°49' E 144°54'0 0.0
2018-May-13 03:25S 37°49' E 144°54'0 0.0
2018-May-13 01:40S 37°49' E 144°54'0 0.0
2018-May-13 01:28S 37°49' E 144°54'0 0.0
2018-May-13 00:55S 37°49' E 144°54'0 0.0
2018-May-13 00:13S 37°49' E 144°54'0 0.0
2018-May-12 23:49S 37°49' E 144°54'0 0.0
2018-May-12 23:19S 37°49' E 144°54'0 0.0
2018-May-12 22:55S 37°49' E 144°54'0 0.0
2018-May-12 22:28S 37°49' E 144°54'0 0.0
2018-May-12 21:37S 37°49' E 144°54'0 0.0
2018-May-12 21:25S 37°49' E 144°54'0 0.0
2018-May-12 19:25S 37°49' E 144°54'0 0.0
2018-May-12 18:55S 37°49' E 144°54'0 0.0
2018-May-12 08:37S 37°49' E 144°54'0 0.0
2018-May-12 08:25S 37°49' E 144°54'0 0.0
2018-May-12 07:55S 37°49' E 144°54'0 0.0
2018-May-12 04:16S 37°49' E 144°54'0 0.0
2018-May-12 03:55S 37°49' E 144°54'0 0.0
2018-May-11 23:19S 37°49' E 144°54'0 0.0
2018-May-11 22:43S 37°49' E 144°54'0 0.0
2018-May-11 22:19S 37°49' E 144°54'  
Track history (hours):
 
Tides and Currents Weather Stations Pressure Air Temp Water Temp Dewpoint Dewpoint Depression Visibility Wind Speed Wind Dir Waves Ship Positions

King Corn

Last reported at 2018-May-21 22:14 UTC. Time now 2018-Jun-18 19:35 UTC.
Position S 27°03' E 153°46'.
Warning: this ship's position is 27 days out of date.

Length 169 m; draft 8 m.

Type: Cargo ship. MMSI: 538004187.

Date/timePositionNaut miles runAvg speedWind from/ knotsBaromVisibWave heightAir tempDewpointWater temp
2018-May-21 22:14S 27°03' E 153°46'411.7
2018-May-21 21:55S 27°07' E 153°46'511.5
2018-May-21 21:30S 27°11' E 153°47'611.4
2018-May-21 20:58S 27°18' E 153°48'511.6
2018-May-21 20:30S 27°23' E 153°49'611.4
2018-May-21 19:59S 27°29' E 153°50'611.5
2018-May-21 19:30S 27°34' E 153°51'612.0
2018-May-21 18:59S 27°40' E 153°51'612.4
2018-May-21 18:30S 27°46' E 153°52'612.1
2018-May-21 17:59S 27°53' E 153°53'27610.6
2018-May-20 15:56S 32°23' E 152°48'5 9.0
2018-May-20 15:22S 32°28' E 152°45'4 9.3
2018-May-20 14:56S 32°31' E 152°42'4 9.2
2018-May-20 14:30S 32°35' E 152°40'5 9.4
2018-May-20 14:00S 32°38' E 152°37'510.3
2018-May-20 13:30S 32°43' E 152°34'510.4
2018-May-20 13:00S 32°48' E 152°32'510.7
2018-May-20 12:30S 32°53' E 152°29'611.0
2018-May-20 12:00S 32°57' E 152°26'610.9
2018-May-20 11:30S 33°02' E 152°22'510.3
2018-May-20 11:00S 33°07' E 152°20'510.4
2018-May-20 10:30S 33°11' E 152°17'3011.5
2018-May-20 07:54S 33°38' E 151°60'512.1
2018-May-20 07:28S 33°42' E 151°57'712.4
2018-May-20 06:53S 33°49' E 151°53'512.1
2018-May-20 06:30S 33°53' E 151°50'711.7
2018-May-20 05:55S 33°59' E 151°46'511.3
2018-May-20 05:30S 34°03' E 151°43'511.1
2018-May-20 05:00S 34°08' E 151°40'911.2
2018-May-20 04:12S 34°13' E 151°31'  
2018-May-17 18:52S 34°19' E 151°07'  
2018-May-15 05:47S 38°25' E 148°60'192 8.8
2018-May-14 07:54S 38°13' E 144°55'614.1
2018-May-14 07:28S 38°06' E 144°55'714.1
2018-May-14 07:00S 37°60' E 144°55'712.9
2018-May-14 06:26S 37°53' E 144°55'3 7.2
2018-May-14 05:59S 37°49' E 144°54'0 0.0
2018-May-13 05:19S 37°49' E 144°54'0 0.0
2018-May-13 04:19S 37°49' E 144°54'0 0.0
2018-May-13 03:55S 37°49' E 144°54'0 0.0
2018-May-13 03:25S 37°49' E 144°54'0 0.0
2018-May-13 01:40S 37°49' E 144°54'0 0.0
2018-May-13 01:28S 37°49' E 144°54'0 0.0
2018-May-13 00:55S 37°49' E 144°54'0 0.0
2018-May-13 00:13S 37°49' E 144°54'0 0.0
2018-May-12 23:49S 37°49' E 144°54'0 0.0
2018-May-12 23:19S 37°49' E 144°54'0 0.0
2018-May-12 22:55S 37°49' E 144°54'0 0.0
2018-May-12 22:28S 37°49' E 144°54'0 0.0
2018-May-12 21:37S 37°49' E 144°54'0 0.0
2018-May-12 21:25S 37°49' E 144°54'0 0.0
2018-May-12 19:25S 37°49' E 144°54'0 0.0
2018-May-12 18:55S 37°49' E 144°54'0 0.0
2018-May-12 08:37S 37°49' E 144°54'0 0.0
2018-May-12 08:25S 37°49' E 144°54'0 0.0
2018-May-12 07:55S 37°49' E 144°54'0 0.0
2018-May-12 04:16S 37°49' E 144°54'0 0.0
2018-May-12 03:55S 37°49' E 144°54'0 0.0
2018-May-11 23:19S 37°49' E 144°54'0 0.0
2018-May-11 22:43S 37°49' E 144°54'0 0.0
2018-May-11 22:19S 37°49' E 144°54'  

Dump ship's entire track history